Time;durP1;ratioP1;P1;durP2;ratioP2;P2;SDS_P1;SDS_P2;PMS_P1;PMS_P2;Temp;Humidity;BMP_temperature;BMP_pressure;BME280_temperature;BME280_humidity;BME280_pressure;Samples;Min_cycle;Max_cycle;Signal;HPM_P1;HPM_P2
2021/12/16 00:09:48;;;;;;;49.20;26.23;;;10.80;99.90;;;;;;5054313;28;20211;-74
2021/12/16 00:29:03;;;;;;;38.03;25.80;;;10.80;99.90;;;;;;5053752;28;20184;-74
2021/12/16 00:34:02;;;;;;;35.10;25.47;;;10.80;99.90;;;;;;5053558;28;20185;-74
2021/12/16 00:36:34;;;;;;;36.87;25.30;;;10.80;99.90;;;;;;5053298;28;20319;-74
2021/12/16 00:39:10;;;;;;;36.33;23.90;;;10.80;99.90;;;;;;5053395;28;20182;-74
2021/12/16 00:41:37;;;;;;;35.60;26.20;;;10.80;99.90;;;;;;5051786;28;20268;-74
2021/12/16 00:47:01;;;;;;;34.73;24.77;;;10.90;99.90;;;;;;5053396;28;20172;-75
2021/12/16 00:54:40;;;;;;;33.90;24.60;;;10.90;99.90;;;;;;5053590;28;20180;-74
2021/12/16 00:57:12;;;;;;;36.60;24.93;;;10.90;99.90;;;;;;5052704;28;20686;-75
2021/12/16 00:59:41;;;;;;;38.03;25.10;;;10.90;99.90;;;;;;5052588;28;20162;-74
2021/12/16 01:05:32;;;;;;;43.73;26.10;;;10.70;99.90;;;;;;5053447;28;20172;-75
2021/12/16 01:08:11;;;;;;;36.30;25.23;;;10.70;99.90;;;;;;5052810;28;20181;-75
2021/12/16 01:33:44;;;;;;;41.67;26.40;;;10.80;99.90;;;;;;5010971;28;20253;-75
2021/12/16 01:39:29;;;;;;;36.40;25.63;;;10.80;99.90;;;;;;5052550;28;20183;-74
2021/12/16 01:50:06;;;;;;;36.23;25.17;;;10.80;99.90;;;;;;5052909;28;20173;-75
2021/12/16 01:56:13;;;;;;;37.97;25.87;;;10.60;99.90;;;;;;5036321;28;20567;-75
2021/12/16 01:58:39;;;;;;;44.30;25.77;;;10.80;99.90;;;;;;5052323;28;20204;-74
2021/12/16 02:01:18;;;;;;;38.17;26.03;;;10.90;99.90;;;;;;5052306;28;20668;-74
2021/12/16 02:03:51;;;;;;;37.00;26.07;;;10.90;99.90;;;;;;5052551;28;21102;-75
2021/12/16 02:06:39;;;;;;;41.43;25.70;;;10.70;99.90;;;;;;5052497;28;20193;-75
2021/12/16 02:09:10;;;;;;;35.60;25.57;;;10.80;99.90;;;;;;5052166;28;20173;-74
2021/12/16 02:36:02;;;;;;;39.20;25.77;;;10.70;99.90;;;;;;5055648;28;20312;-74
2021/12/16 02:38:32;;;;;;;35.67;25.77;;;10.80;99.90;;;;;;5055408;28;20176;-74
2021/12/16 02:40:58;;;;;;;38.57;27.37;;;10.90;99.90;;;;;;5055343;28;20177;-75
2021/12/16 02:48:40;;;;;;;36.10;25.90;;;10.90;99.90;;;;;;5055479;28;20193;-74
2021/12/16 02:51:05;;;;;;;39.23;25.97;;;10.90;99.90;;;;;;5055584;28;20467;-74
2021/12/16 02:53:32;;;;;;;39.87;26.93;;;10.90;99.90;;;;;;5055481;28;20569;-74
2021/12/16 02:55:58;;;;;;;40.10;27.03;;;11.00;99.90;;;;;;5054732;28;20172;-75
2021/12/16 02:58:24;;;;;;;40.10;26.07;;;10.90;99.90;;;;;;5055233;28;20174;-75
2021/12/16 03:01:03;;;;;;;37.67;27.03;;;11.00;99.90;;;;;;5055337;28;20280;-73
2021/12/16 03:03:29;;;;;;;41.53;28.77;;;11.00;99.90;;;;;;5055259;28;20173;-75
2021/12/16 03:05:55;;;;;;;38.83;26.87;;;11.00;99.90;;;;;;5055212;28;20238;-75
2021/12/16 03:08:21;;;;;;;39.07;26.93;;;10.90;99.90;;;;;;5054813;28;20161;-74
2021/12/16 03:13:35;;;;;;;36.70;26.53;;;11.00;99.90;;;;;;5055287;28;20174;-75
2021/12/16 03:19:04;;;;;;;37.67;25.97;;;10.90;99.90;;;;;;5054957;28;20176;-75
2021/12/16 03:21:36;;;;;;;37.67;27.37;;;10.80;99.90;;;;;;5054757;28;20235;-75
2021/12/16 03:29:43;;;;;;;39.60;26.93;;;10.90;99.90;;;;;;5054753;28;20655;-75
2021/12/16 03:37:27;;;;;;;40.67;27.20;;;10.90;99.90;;;;;;5054355;28;20663;-75
2021/12/16 03:40:06;;;;;;;37.77;26.40;;;10.90;99.90;;;;;;5053276;28;20169;-74
2021/12/16 03:42:39;;;;;;;36.83;26.53;;;10.80;99.90;;;;;;5054536;28;20692;-75
2021/12/16 03:46:25;;;;;;;39.13;27.10;;;10.80;99.90;;;;;;5054477;28;20169;-75
2021/12/16 03:48:03;;;;;;;43.13;27.20;;;10.90;99.90;;;;;;5053873;28;20644;-75
2021/12/16 03:50:29;;;;;;;38.50;27.43;;;10.80;99.90;;;;;;5054156;28;20236;-75
2021/12/16 03:52:54;;;;;;;39.47;27.77;;;10.90;99.90;;;;;;5053491;28;20169;-74
2021/12/16 03:55:20;;;;;;;38.50;26.37;;;10.80;99.90;;;;;;5052908;28;20625;-75
2021/12/16 03:57:46;;;;;;;41.00;27.47;;;10.90;99.90;;;;;;5054112;28;20247;-74
2021/12/16 04:00:24;;;;;;;41.43;26.40;;;10.90;99.90;;;;;;5054072;28;20520;-74
2021/12/16 04:02:51;;;;;;;38.67;26.37;;;10.80;99.90;;;;;;5054190;28;20172;-75
2021/12/16 04:05:19;;;;;;;36.87;26.87;;;10.70;99.90;;;;;;5054151;28;20173;-74
2021/12/16 04:07:45;;;;;;;40.80;27.37;;;10.80;99.90;;;;;;5052352;28;20612;-73
2021/12/16 04:10:18;;;;;;;40.03;27.87;;;10.80;99.90;;;;;;5053677;28;20176;-75
2021/12/16 04:12:48;;;;;;;42.90;28.43;;;10.80;99.90;;;;;;5053415;28;20260;-74
2021/12/16 04:15:14;;;;;;;41.33;27.63;;;10.90;99.90;;;;;;5054036;28;20188;-73
2021/12/16 04:17:40;;;;;;;39.37;28.07;;;11.00;99.90;;;;;;5053807;28;20213;-74
2021/12/16 04:20:11;;;;;;;37.53;27.23;;;11.00;99.90;;;;;;5053431;28;20165;-74
2021/12/16 04:22:42;;;;;;;40.43;27.60;;;11.00;99.90;;;;;;5051763;28;20310;-74
2021/12/16 04:25:21;;;;;;;41.17;27.30;;;11.00;99.90;;;;;;5053182;28;20221;-73
2021/12/16 04:27:49;;;;;;;40.97;27.83;;;11.00;99.90;;;;;;5053668;28;20173;-75
2021/12/16 04:30:17;;;;;;;39.20;27.10;;;10.80;99.90;;;;;;5053370;28;20165;-74
2021/12/16 04:32:44;;;;;;;42.33;28.37;;;10.80;99.90;;;;;;5053154;28;20671;-75
2021/12/16 04:35:10;;;;;;;38.93;26.63;;;10.80;99.90;;;;;;5053170;28;20169;-74
2021/12/16 04:37:36;;;;;;;41.67;26.30;;;10.90;99.90;;;;;;5053054;28;20300;-75
2021/12/16 04:40:03;;;;;;;42.07;27.50;;;10.90;99.90;;;;;;5053106;28;20165;-75
2021/12/16 04:42:30;;;;;;;41.53;27.83;;;10.80;99.90;;;;;;5051914;28;20173;-75
2021/12/16 04:44:56;;;;;;;43.13;28.60;;;10.90;99.90;;;;;;5053156;28;20643;-74
2021/12/16 04:47:21;;;;;;;41.03;28.27;;;10.90;99.90;;;;;;5052892;28;20174;-75
2021/12/16 04:49:47;;;;;;;41.60;28.67;;;11.00;99.90;;;;;;5052416;28;20681;-74
2021/12/16 04:52:16;;;;;;;41.87;28.37;;;10.90;99.90;;;;;;5052840;28;20173;-74
2021/12/16 04:54:42;;;;;;;40.70;28.43;;;10.90;99.90;;;;;;5052491;28;20563;-74
2021/12/16 04:57:09;;;;;;;41.00;28.13;;;11.00;99.90;;;;;;5052834;28;20232;-74
2021/12/16 04:59:36;;;;;;;40.13;27.47;;;11.00;99.90;;;;;;5052918;28;20169;-74
2021/12/16 05:02:08;;;;;;;41.43;28.43;;;10.90;99.90;;;;;;5052879;28;20288;-74
2021/12/16 05:04:34;;;;;;;42.33;28.00;;;11.10;99.90;;;;;;5052806;28;20249;-74
2021/12/16 05:07:00;;;;;;;39.50;29.13;;;11.10;99.90;;;;;;5052482;28;20204;-73
2021/12/16 05:12:06;;;;;;;43.40;28.53;;;11.20;99.90;;;;;;5052844;28;20177;-75
2021/12/16 05:14:32;;;;;;;44.40;28.53;;;11.10;99.90;;;;;;5053209;28;20177;-74
2021/12/16 05:16:57;;;;;;;42.03;28.43;;;11.10;99.90;;;;;;5052289;28;20724;-74
2021/12/16 05:19:26;;;;;;;42.67;27.57;;;11.10;99.90;;;;;;5052465;28;20172;-74
2021/12/16 05:21:58;;;;;;;44.43;28.67;;;11.00;99.90;;;;;;5052289;28;20178;-74
2021/12/16 05:24:27;;;;;;;40.03;28.07;;;11.00;99.90;;;;;;5051726;28;20221;-74
2021/12/16 05:26:59;;;;;;;44.50;28.70;;;10.90;99.90;;;;;;5052834;28;20206;-74
2021/12/16 05:29:25;;;;;;;43.87;28.93;;;10.90;99.90;;;;;;5052720;28;20173;-74
2021/12/16 05:31:52;;;;;;;40.40;27.77;;;10.90;99.90;;;;;;5052091;28;20193;-74
2021/12/16 05:34:19;;;;;;;41.60;29.00;;;10.90;99.90;;;;;;5050303;28;20169;-74
2021/12/16 05:36:45;;;;;;;40.40;28.30;;;10.90;99.90;;;;;;5052132;28;20322;-74
2021/12/16 05:39:11;;;;;;;39.97;27.57;;;10.90;99.90;;;;;;5052501;28;20678;-74
2021/12/16 05:41:37;;;;;;;44.57;28.23;;;11.00;99.90;;;;;;5052110;28;20177;-74
2021/12/16 05:44:03;;;;;;;44.40;28.93;;;11.00;99.90;;;;;;5052397;28;20191;-74
2021/12/16 05:46:29;;;;;;;40.13;28.10;;;11.10;99.90;;;;;;5051552;28;20628;-74
2021/12/16 05:48:57;;;;;;;38.87;27.83;;;11.10;99.90;;;;;;5051646;28;20288;-74
2021/12/16 05:51:28;;;;;;;41.53;27.70;;;11.10;99.90;;;;;;5051841;28;20181;-74
2021/12/16 05:53:54;;;;;;;38.70;28.30;;;11.00;99.90;;;;;;5051967;28;20220;-75
2021/12/16 05:56:20;;;;;;;43.20;28.07;;;11.00;99.90;;;;;;5052534;28;20232;-73
2021/12/16 05:58:47;;;;;;;41.73;27.90;;;11.00;99.90;;;;;;5051520;28;20173;-74
2021/12/16 06:01:26;;;;;;;42.27;28.40;;;11.00;99.90;;;;;;5051892;28;20181;-74
2021/12/16 06:03:53;;;;;;;41.60;28.57;;;10.90;99.90;;;;;;5055757;28;20188;-75
2021/12/16 06:06:19;;;;;;;40.57;27.73;;;11.00;99.90;;;;;;5054898;28;20240;-74
2021/12/16 06:08:46;;;;;;;40.87;28.20;;;11.00;99.90;;;;;;5055397;28;20268;-74
2021/12/16 06:11:16;;;;;;;41.13;28.83;;;11.00;99.90;;;;;;5056053;28;20264;-74
2021/12/16 06:27:30;;;;;;;40.73;28.20;;;11.10;99.90;;;;;;5055193;28;20235;-74
2021/12/16 06:29:57;;;;;;;41.40;27.57;;;11.10;99.90;;;;;;5055125;28;20268;-74
2021/12/16 06:32:22;;;;;;;41.27;28.43;;;11.10;99.90;;;;;;5055022;28;20259;-74
2021/12/16 06:34:54;;;;;;;44.80;29.40;;;11.10;99.90;;;;;;5055015;28;20741;-75
2021/12/16 06:37:21;;;;;;;42.57;27.97;;;11.20;99.90;;;;;;5054841;28;20297;-74
2021/12/16 06:39:47;;;;;;;42.97;28.30;;;11.20;99.90;;;;;;5054474;28;20169;-74
2021/12/16 06:42:13;;;;;;;43.03;27.70;;;11.20;99.90;;;;;;5054693;28;20264;-75
2021/12/16 06:44:44;;;;;;;39.37;28.03;;;11.20;99.90;;;;;;5054233;28;20655;-75
2021/12/16 06:47:16;;;;;;;39.43;28.63;;;11.20;99.90;;;;;;5054571;28;20213;-75
2021/12/16 06:49:45;;;;;;;49.40;29.30;;;11.00;99.90;;;;;;5054214;28;20169;-75
2021/12/16 06:52:14;;;;;;;39.33;27.93;;;11.10;99.90;;;;;;5053370;28;20173;-75
2021/12/16 06:57:39;;;;;;;45.40;29.03;;;11.20;99.90;;;;;;5053969;28;20219;-75
2021/12/16 07:00:16;;;;;;;37.80;27.97;;;11.20;99.90;;;;;;5053941;28;20197;-75
2021/12/16 07:03:04;;;;;;;43.57;28.57;;;11.20;99.90;;;;;;5053846;28;20191;-74
2021/12/16 07:05:37;;;;;;;45.50;28.67;;;11.30;99.90;;;;;;5053232;28;20193;-74
2021/12/16 07:08:07;;;;;;;46.20;29.53;;;11.30;99.90;;;;;;5053885;28;20173;-74
2021/12/16 07:10:33;;;;;;;48.40;28.47;;;11.30;99.90;;;;;;5053756;28;20265;-75
2021/12/16 07:13:06;;;;;;;41.33;28.60;;;11.30;99.90;;;;;;5053654;28;20256;-74
2021/12/16 07:15:33;;;;;;;42.03;28.40;;;11.30;99.90;;;;;;5053871;28;20169;-75
2021/12/16 07:17:59;;;;;;;43.47;28.20;;;11.30;99.90;;;;;;5053879;28;20217;-74
2021/12/16 07:20:28;;;;;;;43.33;28.67;;;11.30;99.90;;;;;;5053096;28;20192;-75
2021/12/16 07:22:55;;;;;;;48.83;29.00;;;11.40;99.90;;;;;;5053744;28;20612;-74
2021/12/16 07:25:21;;;;;;;41.07;28.00;;;11.30;99.90;;;;;;5052278;28;20299;-74
2021/12/16 07:27:47;;;;;;;41.87;28.83;;;11.40;99.90;;;;;;5054142;28;20644;-74
2021/12/16 07:30:16;;;;;;;47.43;28.67;;;11.50;99.90;;;;;;5052819;28;20188;-74
2021/12/16 07:32:42;;;;;;;44.20;27.40;;;11.40;99.90;;;;;;5053221;28;20224;-74
2021/12/16 07:35:12;;;;;;;43.80;27.77;;;11.50;99.90;;;;;;5053217;28;20165;-74
2021/12/16 07:37:38;;;;;;;49.10;29.50;;;11.30;99.90;;;;;;5052909;28;20212;-74
2021/12/16 07:40:09;;;;;;;42.47;28.07;;;11.30;99.90;;;;;;5053681;28;20230;-74
2021/12/16 07:42:58;;;;;;;42.93;27.97;;;11.40;99.90;;;;;;5053070;28;20212;-74
2021/12/16 07:45:24;;;;;;;49.77;30.00;;;11.40;99.90;;;;;;5052508;28;20555;-74
2021/12/16 07:47:50;;;;;;;41.73;27.70;;;11.40;99.90;;;;;;5053166;28;20183;-74
2021/12/16 07:50:16;;;;;;;45.80;29.17;;;11.30;99.90;;;;;;5051373;28;20176;-75
2021/12/16 07:52:41;;;;;;;44.13;27.67;;;11.40;99.90;;;;;;5052480;28;20689;-74
2021/12/16 07:55:09;;;;;;;41.23;26.87;;;11.50;99.90;;;;;;5052991;28;20239;-74
2021/12/16 07:57:35;;;;;;;42.57;28.03;;;11.50;99.90;;;;;;5052198;28;20231;-74
2021/12/16 08:00:02;;;;;;;43.30;28.80;;;11.60;99.90;;;;;;5052196;28;20628;-74
2021/12/16 08:02:28;;;;;;;42.83;27.97;;;11.50;99.90;;;;;;5052901;28;20181;-74
2021/12/16 08:04:53;;;;;;;46.10;29.13;;;11.50;99.90;;;;;;5053203;28;20174;-74
2021/12/16 08:07:21;;;;;;;46.17;28.87;;;11.40;99.90;;;;;;5053361;28;20180;-74
2021/12/16 08:09:50;;;;;;;43.57;27.57;;;11.40;99.90;;;;;;5052014;28;20165;-74
2021/12/16 08:12:17;;;;;;;51.93;28.87;;;11.50;99.90;;;;;;5052716;28;20306;-74
2021/12/16 08:14:44;;;;;;;45.17;27.50;;;11.40;99.90;;;;;;5050855;28;20618;-75
2021/12/16 08:17:11;;;;;;;50.47;29.43;;;11.60;99.90;;;;;;5052808;28;20229;-74
2021/12/16 08:19:36;;;;;;;43.17;28.83;;;11.70;99.90;;;;;;5052811;28;20211;-73
2021/12/16 08:22:04;;;;;;;47.33;29.20;;;11.60;99.90;;;;;;5052731;28;20642;-74
2021/12/16 08:24:32;;;;;;;40.70;27.93;;;11.60;99.90;;;;;;5052173;28;20236;-74
2021/12/16 08:26:58;;;;;;;45.20;27.80;;;11.60;99.90;;;;;;5052774;28;20196;-74
2021/12/16 08:29:24;;;;;;;41.30;27.63;;;11.50;99.90;;;;;;5058888;28;20860;-74
2021/12/16 08:31:51;;;;;;;43.40;26.87;;;11.50;99.90;;;;;;5069090;28;20179;-73
2021/12/16 08:34:17;;;;;;;50.23;28.90;;;11.50;99.90;;;;;;5071396;28;20169;-74
2021/12/16 08:36:44;;;;;;;39.97;28.30;;;11.50;99.90;;;;;;5070566;28;20196;-75
2021/12/16 08:39:13;;;;;;;38.10;27.37;;;11.50;99.90;;;;;;5071689;28;20204;-74
2021/12/16 08:41:43;;;;;;;47.83;29.67;;;11.60;99.90;;;;;;5067205;28;20184;-74
2021/12/16 08:44:11;;;;;;;44.63;29.20;;;11.50;99.90;;;;;;5072158;28;20693;-76
2021/12/16 08:46:40;;;;;;;45.37;29.67;;;11.50;99.90;;;;;;5071299;28;20183;-75
2021/12/16 08:49:07;;;;;;;47.63;29.93;;;11.60;99.90;;;;;;5072007;28;20172;-74
2021/12/16 08:51:37;;;;;;;46.13;28.33;;;11.80;99.90;;;;;;5070335;28;20689;-74
2021/12/16 08:54:03;;;;;;;44.87;27.83;;;11.80;99.90;;;;;;5071342;28;20608;-74
2021/12/16 08:56:32;;;;;;;45.27;28.50;;;11.90;99.90;;;;;;5070895;28;20203;-74
2021/12/16 08:58:59;;;;;;;46.07;29.27;;;12.00;99.90;;;;;;5070934;28;20643;-74
2021/12/16 09:01:28;;;;;;;41.53;29.20;;;12.10;99.90;;;;;;5071197;28;20200;-74
2021/12/16 09:03:55;;;;;;;44.73;29.17;;;12.20;99.90;;;;;;5065627;28;20195;-74
2021/12/16 09:06:31;;;;;;;42.97;28.20;;;12.20;99.90;;;;;;5070856;28;20172;-74
2021/12/16 09:08:56;;;;;;;43.60;29.30;;;12.20;99.90;;;;;;5071697;28;20179;-74
2021/12/16 09:11:25;;;;;;;47.13;28.43;;;12.10;99.90;;;;;;5070374;28;20172;-74
2021/12/16 09:13:54;;;;;;;44.33;28.67;;;12.10;99.90;;;;;;5071335;28;20175;-74
2021/12/16 09:16:22;;;;;;;49.77;28.67;;;12.00;99.90;;;;;;5070181;28;20650;-74
2021/12/16 09:18:52;;;;;;;44.23;28.77;;;12.10;99.90;;;;;;5071387;28;20172;-74
2021/12/16 09:21:22;;;;;;;42.97;28.73;;;12.20;99.90;;;;;;5071710;28;20172;-73
2021/12/16 09:23:49;;;;;;;44.67;29.77;;;12.20;99.90;;;;;;5071089;28;20680;-76
2021/12/16 09:26:16;;;;;;;43.33;28.43;;;12.20;99.90;;;;;;5071074;28;20176;-74
2021/12/16 09:28:43;;;;;;;73.00;51.63;;;12.20;99.90;;;;;;5070156;28;20184;-74
2021/12/16 09:31:12;;;;;;;78.23;53.70;;;12.20;99.90;;;;;;5070011;28;20176;-74
2021/12/16 09:33:43;;;;;;;48.60;30.70;;;12.20;99.90;;;;;;5067353;28;20713;-74
2021/12/16 09:36:10;;;;;;;54.70;39.53;;;12.20;99.90;;;;;;5072654;28;20628;-75
2021/12/16 09:38:36;;;;;;;58.00;40.23;;;12.30;99.90;;;;;;5073235;28;20242;-75
2021/12/16 09:41:03;;;;;;;43.13;30.00;;;12.30;99.90;;;;;;5073538;28;20190;-75
2021/12/16 09:43:33;;;;;;;52.97;29.57;;;12.30;99.90;;;;;;5072901;28;20168;-75
2021/12/16 09:46:02;;;;;;;66.17;32.93;;;12.40;99.90;;;;;;5075245;28;20652;-74
2021/12/16 09:48:30;;;;;;;45.03;28.90;;;12.50;99.90;;;;;;5074634;28;20662;-74
2021/12/16 09:50:56;;;;;;;44.27;29.10;;;12.60;99.90;;;;;;5075437;28;20223;-75
2021/12/16 09:53:24;;;;;;;45.67;29.10;;;12.60;99.90;;;;;;5073514;28;20184;-76
2021/12/16 09:55:58;;;;;;;44.93;29.53;;;12.70;99.90;;;;;;5074765;28;20172;-75
2021/12/16 09:58:24;;;;;;;44.30;29.17;;;12.60;99.90;;;;;;5073959;28;20216;-75
2021/12/16 10:00:50;;;;;;;47.30;29.17;;;12.60;99.90;;;;;;5074934;28;20271;-75
2021/12/16 10:03:17;;;;;;;38.93;28.27;;;12.60;99.90;;;;;;5075210;28;20181;-75
2021/12/16 10:05:43;;;;;;;45.27;30.13;;;12.60;99.90;;;;;;5075211;28;20177;-74
2021/12/16 10:08:09;;;;;;;45.97;29.23;;;12.80;99.90;;;;;;5074753;28;20177;-75
2021/12/16 10:10:36;;;;;;;43.07;28.47;;;12.80;99.90;;;;;;5073495;28;20188;-75
2021/12/16 10:13:04;;;;;;;45.53;29.90;;;12.90;99.90;;;;;;5074323;28;20636;-74
2021/12/16 10:18:08;;;;;;;49.00;29.33;;;13.00;99.90;;;;;;5074882;28;20401;-75
2021/12/16 10:20:45;;;;;;;41.63;28.00;;;13.10;99.90;;;;;;5074035;28;20695;-76
2021/12/16 10:23:16;;;;;;;41.93;28.37;;;13.10;99.90;;;;;;5074465;28;20172;-75
2021/12/16 10:25:43;;;;;;;49.80;29.13;;;13.10;99.90;;;;;;5073219;28;20203;-75
2021/12/16 10:28:25;;;;;;;46.17;30.50;;;13.10;99.90;;;;;;5074721;28;20246;-75
2021/12/16 10:31:06;;;;;;;45.97;29.20;;;13.10;99.90;;;;;;5074421;28;20252;-76
2021/12/16 10:34:04;;;;;;;44.83;28.73;;;13.30;99.90;;;;;;5074445;28;20164;-75
2021/12/16 10:36:32;;;;;;;47.30;29.37;;;13.30;99.90;;;;;;5069439;28;20201;-75
2021/12/16 10:39:16;;;;;;;44.00;29.40;;;13.40;99.90;;;;;;5073401;28;20200;-75
2021/12/16 10:41:58;;;;;;;48.63;28.17;;;13.40;99.90;;;;;;5058530;28;20160;-76
2021/12/16 10:44:28;;;;;;;49.20;28.93;;;13.50;99.90;;;;;;5074403;28;20248;-75
2021/12/16 10:47:10;;;;;;;43.97;28.23;;;13.70;99.90;;;;;;5073670;28;20268;-75
2021/12/16 10:49:43;;;;;;;42.27;27.63;;;13.80;99.90;;;;;;5074169;28;20175;-75
2021/12/16 10:52:16;;;;;;;44.57;28.10;;;13.90;99.90;;;;;;5074194;28;20183;-76
2021/12/16 10:54:45;;;;;;;41.90;28.23;;;13.90;99.90;;;;;;5067756;28;20207;-76
2021/12/16 10:57:13;;;;;;;45.77;28.73;;;14.00;99.90;;;;;;5066110;28;20282;-77
2021/12/16 10:59:50;;;;;;;44.13;28.50;;;14.00;99.90;;;;;;5067994;28;20273;-77
2021/12/16 11:02:24;;;;;;;43.83;27.30;;;14.10;99.90;;;;;;5071198;28;20187;-76
2021/12/16 11:04:57;;;;;;;44.27;28.53;;;14.00;99.90;;;;;;5072966;28;20172;-75
2021/12/16 11:07:28;;;;;;;38.07;27.13;;;14.20;99.90;;;;;;5073980;28;20670;-76
2021/12/16 11:10:15;;;;;;;46.27;29.10;;;14.30;99.90;;;;;;5073203;28;20169;-77
2021/12/16 11:12:49;;;;;;;50.80;29.30;;;14.40;99.90;;;;;;5073417;28;20169;-76
2021/12/16 11:15:33;;;;;;;42.33;27.97;;;14.50;99.90;;;;;;5072320;28;20264;-78
2021/12/16 11:18:07;;;;;;;40.30;26.83;;;14.70;99.90;;;;;;5056661;28;20212;-78
2021/12/16 11:20:37;;;;;;;41.50;26.97;;;14.70;99.90;;;;;;5073849;28;20207;-78
2021/12/16 11:23:26;;;;;;;42.93;29.80;;;14.80;99.90;;;;;;5072282;28;20222;-77
2021/12/16 11:25:57;;;;;;;44.07;27.30;;;15.00;99.90;;;;;;5033014;28;20196;-76
2021/12/16 11:28:43;;;;;;;47.00;30.77;;;15.30;99.90;;;;;;5032681;28;20170;-76
2021/12/16 11:31:10;;;;;;;43.20;28.23;;;15.60;99.90;;;;;;5033455;28;20174;-77
2021/12/16 11:33:40;;;;;;;40.20;26.93;;;15.60;99.90;;;;;;5033004;28;20170;-78
2021/12/16 11:36:17;;;;;;;38.37;26.03;;;15.70;99.90;;;;;;5032807;28;20186;-77
2021/12/16 11:39:16;;;;;;;39.47;26.50;;;15.80;99.90;;;;;;5032856;28;20224;-76
2021/12/16 11:41:51;;;;;;;39.03;27.07;;;15.50;99.90;;;;;;5032071;28;20193;-77
2021/12/16 11:44:24;;;;;;;37.93;26.80;;;15.40;99.90;;;;;;5033293;28;20168;-77
2021/12/16 11:47:14;;;;;;;40.93;28.13;;;15.40;99.90;;;;;;5023228;28;20170;-76
2021/12/16 11:49:46;;;;;;;43.87;25.17;;;15.50;99.90;;;;;;5029636;28;20214;-79
2021/12/16 11:52:20;;;;;;;37.83;26.47;;;15.40;99.90;;;;;;5031481;28;20256;-77
2021/12/16 11:54:48;;;;;;;40.47;26.40;;;15.50;99.90;;;;;;5033268;28;20174;-77
2021/12/16 11:57:13;;;;;;;45.53;26.93;;;15.50;99.90;;;;;;5032617;28;20205;-77
2021/12/16 11:59:50;;;;;;;39.37;27.77;;;15.60;99.90;;;;;;5031779;28;20218;-76
2021/12/16 12:02:32;;;;;;;37.43;25.77;;;15.60;99.90;;;;;;5018758;28;20174;-78
2021/12/16 12:05:29;;;;;;;35.30;26.50;;;15.50;99.90;;;;;;5032507;28;20618;-78
2021/12/16 12:08:03;;;;;;;43.03;26.97;;;15.30;99.90;;;;;;5032166;28;20235;-78
2021/12/16 12:10:53;;;;;;;40.73;26.20;;;15.20;99.90;;;;;;5031770;28;20166;-79
2021/12/16 12:13:26;;;;;;;42.13;29.07;;;15.20;99.90;;;;;;5027872;28;20182;-77
2021/12/16 12:15:56;;;;;;;36.57;25.43;;;15.10;99.90;;;;;;5031931;28;20839;-78
2021/12/16 12:18:31;;;;;;;38.53;26.80;;;14.70;99.90;;;;;;5031388;28;20210;-78
2021/12/16 12:21:18;;;;;;;40.70;27.53;;;14.70;99.90;;;;;;5031748;28;20173;-77
2021/12/16 12:23:45;;;;;;;41.57;24.70;;;14.90;99.90;;;;;;5042541;28;20231;-78
2021/12/16 12:26:17;;;;;;;37.37;25.77;;;14.70;99.90;;;;;;5070592;28;20235;-78
2021/12/16 12:28:56;;;;;;;43.90;27.87;;;14.60;99.90;;;;;;5070676;28;20218;-77
2021/12/16 12:31:25;;;;;;;44.40;28.30;;;14.60;99.90;;;;;;5071780;28;20176;-76
2021/12/16 12:33:52;;;;;;;43.73;28.27;;;14.60;99.90;;;;;;5070437;28;21367;-77
2021/12/16 12:36:19;;;;;;;41.73;28.37;;;14.50;99.90;;;;;;5071570;28;20212;-76
2021/12/16 12:38:45;;;;;;;40.60;26.67;;;14.40;99.90;;;;;;5071925;28;20181;-77
2021/12/16 12:41:11;;;;;;;42.60;27.53;;;14.50;99.90;;;;;;5071738;28;20178;-76
2021/12/16 12:43:37;;;;;;;44.70;28.20;;;14.40;99.90;;;;;;5070122;28;20758;-76
2021/12/16 12:46:05;;;;;;;42.23;28.27;;;14.30;99.90;;;;;;5071460;28;20248;-76
2021/12/16 12:48:35;;;;;;;42.77;29.23;;;14.10;99.90;;;;;;5071219;28;20176;-76
2021/12/16 12:51:01;;;;;;;48.83;29.67;;;14.30;99.90;;;;;;5071020;28;20257;-76
2021/12/16 12:53:34;;;;;;;48.10;30.40;;;14.40;99.90;;;;;;5071812;28;20196;-75
2021/12/16 12:56:11;;;;;;;44.67;29.53;;;14.50;99.90;;;;;;5058916;28;20173;-76
2021/12/16 12:58:58;;;;;;;44.13;28.33;;;14.50;99.90;;;;;;5070591;28;20184;-75
2021/12/16 13:02:02;;;;;;;46.10;28.30;;;14.40;99.90;;;;;;5072140;28;20200;-76
2021/12/16 13:04:47;;;;;;;49.33;29.77;;;14.50;99.90;;;;;;5056664;28;20587;-76
2021/12/16 13:07:14;;;;;;;44.00;27.13;;;14.80;99.90;;;;;;5065967;28;20168;-76
2021/12/16 13:09:49;;;;;;;45.40;26.93;;;14.90;99.90;;;;;;5070562;28;20164;-76
2021/12/16 13:12:58;;;;;;;37.77;26.07;;;15.00;99.90;;;;;;5071529;28;20259;-77
2021/12/16 13:15:32;;;;;;;40.80;24.67;;;15.20;99.90;;;;;;5071478;28;20172;-75
2021/12/16 13:24:02;;;;;;;45.10;27.60;;;15.00;99.90;;;;;;5068392;28;20341;-76
2021/12/16 13:26:38;;;;;;;48.17;27.07;;;15.20;99.90;;;;;;5069535;28;20523;-76
2021/12/16 13:29:39;;;;;;;45.93;27.60;;;15.20;99.90;;;;;;5067784;28;20172;-75
2021/12/16 13:32:27;;;;;;;42.57;26.03;;;15.20;99.90;;;;;;5053565;28;20192;-77
2021/12/16 13:37:54;;;;;;;43.63;26.50;;;15.00;99.90;;;;;;5070248;28;20259;-76
2021/12/16 13:40:23;;;;;;;48.77;26.80;;;15.00;99.90;;;;;;5071048;28;20257;-77
2021/12/16 13:43:15;;;;;;;41.07;25.80;;;14.80;99.90;;;;;;5070184;28;20203;-76
2021/12/16 13:46:33;;;;;;;39.43;22.10;;;14.80;99.90;;;;;;5070409;28;20173;-77
2021/12/16 14:03:45;;;;;;;30.27;19.57;;;14.50;99.90;;;;;;5015377;28;20565;-77
2021/12/16 14:06:22;;;;;;;31.37;18.90;;;14.50;99.90;;;;;;5055843;28;20208;-76
2021/12/16 14:08:51;;;;;;;30.23;19.23;;;14.50;99.90;;;;;;5067871;28;20267;-77
2021/12/16 14:18:02;;;;;;;33.17;19.43;;;14.40;99.90;;;;;;4949361;29;20220;-76
2021/12/16 14:23:46;;;;;;;34.17;19.50;;;14.20;99.90;;;;;;5003744;28;20348;-76
2021/12/16 14:26:37;;;;;;;32.83;19.73;;;14.00;99.90;;;;;;5012257;28;20607;-77
2021/12/16 14:37:31;;;;;;;34.37;20.57;;;13.50;99.90;;;;;;5005681;28;20309;-75
2021/12/16 14:40:34;;;;;;;35.17;21.00;;;13.40;99.90;;;;;;4994509;28;20296;-77
2021/12/16 14:45:53;;;;;;;35.80;21.80;;;13.30;99.90;;;;;;5010559;28;20178;-76
2021/12/16 14:48:24;;;;;;;36.17;20.47;;;13.30;99.90;;;;;;4998340;28;20175;-76
2021/12/16 14:51:09;;;;;;;30.27;20.00;;;13.40;99.90;;;;;;5056077;28;20757;-76
2021/12/16 14:53:46;;;;;;;31.87;19.93;;;13.40;99.90;;;;;;5072991;28;20180;-76
2021/12/16 14:56:28;;;;;;;29.20;19.33;;;13.30;99.90;;;;;;5073758;28;20168;-77
2021/12/16 14:59:04;;;;;;;36.23;19.77;;;13.30;99.90;;;;;;5073340;28;20187;-75
2021/12/16 15:01:39;;;;;;;35.27;20.57;;;13.20;99.90;;;;;;5072816;28;20271;-75
2021/12/16 15:04:13;;;;;;;35.00;20.47;;;13.10;99.90;;;;;;5067939;28;20191;-76
2021/12/16 15:07:15;;;;;;;32.70;18.60;;;13.10;99.90;;;;;;5072788;28;20177;-76
2021/12/16 15:09:37;;;;;;;32.70;17.60;;;12.90;99.90;;;;;;5071327;28;20180;-76
2021/12/16 15:12:32;;;;;;;30.63;17.57;;;12.70;99.90;;;;;;5073563;28;20172;-78
2021/12/16 15:15:16;;;;;;;39.50;19.67;;;12.60;99.90;;;;;;5073377;28;20173;-75
2021/12/16 15:33:21;;;;;;;47.30;22.30;;;12.10;99.90;;;;;;5072780;28;20578;-77
2021/12/16 15:40:35;;;;;;;33.90;20.87;;;11.90;99.90;;;;;;5052828;28;20176;-77
2021/12/16 15:43:04;;;;;;;36.07;21.60;;;11.70;99.90;;;;;;5072447;28;20218;-77
2021/12/16 15:45:54;;;;;;;31.43;21.40;;;11.60;99.90;;;;;;5071403;28;20177;-75
2021/12/16 15:48:29;;;;;;;37.80;22.17;;;11.60;99.90;;;;;;5058415;28;20177;-77
2021/12/16 15:50:59;;;;;;;37.90;21.80;;;11.50;99.90;;;;;;5071426;28;20179;-76
2021/12/16 15:53:32;;;;;;;40.13;24.37;;;11.50;99.90;;;;;;5072277;28;20267;-77
2021/12/16 15:56:06;;;;;;;49.50;28.47;;;11.50;99.90;;;;;;5063730;28;20273;-76
2021/12/16 15:59:05;;;;;;;46.50;28.77;;;11.50;99.90;;;;;;5071056;28;20232;-76
2021/12/16 16:01:38;;;;;;;58.60;35.50;;;11.50;99.90;;;;;;5057291;28;20204;-77
2021/12/16 16:04:11;;;;;;;67.43;41.63;;;11.40;99.90;;;;;;5056754;28;20218;-76
2021/12/16 16:06:41;;;;;;;60.63;41.93;;;11.30;99.90;;;;;;5052013;28;20249;-77
2021/12/16 16:09:10;;;;;;;69.03;42.67;;;11.20;99.90;;;;;;5050766;28;20268;-76
2021/12/16 16:11:41;;;;;;;67.73;41.87;;;11.20;99.90;;;;;;5051215;28;20169;-78
2021/12/16 16:14:07;;;;;;;66.30;42.17;;;11.20;99.90;;;;;;5051007;28;20629;-78
2021/12/16 16:16:44;;;;;;;69.77;42.90;;;11.10;99.90;;;;;;5050736;28;20222;-78
2021/12/16 16:19:13;;;;;;;69.90;42.63;;;11.20;99.90;;;;;;5050432;28;20184;-77
2021/12/16 16:21:46;;;;;;;70.83;43.90;;;11.10;99.90;;;;;;5051553;28;20234;-78